Weather at M. R. Štefánik Airport

Public forecast

Using degrees Celsius for public forecast. Weather courtesy of forecast.io.

Current aviation weather report (METAR) for M. R. Štefánik Airport

2024/04/22 05:30 (retrieved 10 minutes ago)

LZIB 220530Z 32011KT 9999 FEW018 BKN040 05/01 Q1018 NOSIG

Closest aviation forecast (TAF) to M. R. Štefánik Airport

Forecast is more than 6 hours old.

Closest forecast is Sliač Airport, 81.6 nm (151.1 km) ENE.

2024/04/21 18:48 (retrieved 11 hours ago)

TAF TAF LZSL 211630Z 2118/2206 VRB03KT 9999 SCT040 BKN060 TEMPO 2118/2124 -RA BKN025 BKN035 TEMPO 2123/2206 4000 BR BKN010 OVC025